Pagrindinis puslapis
METAR-TAF:

METAR-TAF

Oro uostai :

Stokholmas-Skavsta, Švedija

platuma: 58-47N, ilguma: 016-55E, Aukštis: 43 m

Dabartinis oras

Ataskaita buvo paskelbta 22 minutes, ne 04:20 UTC
Vėjas 5 kt iš Šiaurės Vakarų
Temperatūra 0°C
Drėgmė 69%
Slėgis 1023 hPa
Matomumas 10 km arba daugiau
nėra debesų žemiau 1500 m ir nėra kamuolinių lietaus debesų

METAR: ESKN 100420Z 31005KT CAVOK M00/M05 Q1023

Laikas: 06:42 (04:42 UTC)

Prognozė

Ataskaita buvo paskelbta 5 valandos ir 12 minutes, ne 23:30 UTC
Prognozė galioja nuo 10 metu 00 UTC su 10 metu 24 UTC
Vėjas 5 kt iš Šiaurės Vakarų
Matomumas 10 km arba daugiau
nėra debesų žemiau 1500 m ir nėra kamuolinių lietaus debesų
Laikinai
nuo 10 metu 10 UTC su 10 metu 16 UTC
Išsisklaidę debesys ne aukštis 6000 ft, aukštai iškilę kamuoliniai debesys.

TAF: ESKN 092330Z 1000/1024 31005KT CAVOK TEMPO 1010/1016 SCT060TCU

Orai ataskaitas ir orų prognozės (METAR, TAF).

turimą stotys yra geltonos ir raudonos taškus žemėlapyje.

Perkelti pele per norėdami pamatyti stoties vardą.

Tada spustelėkite, norėdami matyti oro stebėjimo ir prognozės.

Norėdami pakeisti žemėlapį: spustelėkite ant žalios mygtukų su juodo kryžiaus žemyn,; žalią mygtuką su brūkšneliu, jei norite nutolinti; arba žalių rodyklių gretimoms žemėlapius.


METAR-TAF: